createdAt,value
2017-01-24T00:00:24.138Z,23.69
2017-01-24T00:01:34.933Z,23.72
2017-01-24T00:02:45.733Z,23.75
2017-01-24T00:03:56.535Z,23.71
2017-01-24T00:05:07.339Z,23.71
2017-01-24T00:06:18.131Z,23.67
2017-01-24T00:07:28.923Z,23.68
2017-01-24T00:08:39.726Z,23.72
2017-01-24T00:09:50.545Z,23.84
2017-01-24T00:11:01.340Z,23.71
2017-01-24T00:12:12.131Z,23.75
2017-01-24T00:13:22.925Z,23.81
2017-01-24T00:14:33.724Z,23.75
2017-01-24T00:15:44.535Z,23.74
2017-01-24T00:16:55.331Z,23.81
2017-01-24T00:18:06.131Z,23.86
2017-01-24T00:19:16.917Z,23.84
2017-01-24T00:20:28.059Z,23.84
2017-01-24T00:21:38.862Z,23.86
2017-01-24T00:22:49.658Z,23.82
2017-01-24T00:24:00.456Z,23.89
2017-01-24T00:25:11.266Z,23.89
2017-01-24T00:26:22.315Z,23.92
2017-01-24T00:27:33.107Z,23.92
2017-01-24T00:28:43.912Z,23.96
2017-01-24T00:29:54.717Z,23.96
2017-01-24T00:31:05.513Z,23.87
2017-01-24T00:32:16.635Z,23.74
2017-01-24T00:33:27.429Z,23.69
2017-01-24T00:34:38.229Z,23.74
2017-01-24T00:35:49.027Z,23.82
2017-01-24T00:36:59.825Z,23.72
2017-01-24T00:38:10.620Z,23.71
2017-01-24T00:39:21.426Z,23.62
2017-01-24T00:40:32.224Z,23.52
2017-01-24T00:41:43.027Z,23.45
2017-01-24T00:42:53.831Z,23.35
2017-01-24T00:44:04.627Z,23.41
2017-01-24T00:45:15.419Z,23.31
2017-01-24T00:46:26.213Z,23.32
2017-01-24T00:47:37.002Z,23.31
2017-01-24T00:48:47.803Z,23.21
2017-01-24T00:49:58.597Z,23.18
2017-01-24T00:51:09.419Z,23.16
2017-01-24T00:52:20.218Z,23.07
2017-01-24T00:53:31.016Z,23.07
2017-01-24T00:54:41.846Z,23.16
2017-01-24T00:55:52.995Z,23.12
2017-01-24T00:57:03.787Z,23.12
2017-01-24T00:58:14.585Z,23.11
2017-01-24T00:59:25.397Z,23.14
2017-01-24T01:00:50.963Z,23.11
2017-01-24T01:02:02.364Z,23.07
2017-01-24T01:03:13.159Z,23.09
2017-01-24T01:04:23.958Z,23.11
2017-01-24T01:05:34.751Z,23.16
2017-01-24T01:06:45.549Z,23.25
2017-01-24T01:07:56.353Z,23.35
2017-01-24T01:09:07.159Z,23.31
2017-01-24T01:10:17.955Z,23.39
2017-01-24T01:11:28.774Z,23.23
2017-01-24T01:12:39.575Z,23.12
2017-01-24T01:13:50.379Z,22.97
2017-01-24T01:15:01.173Z,23.04
2017-01-24T01:16:11.983Z,23.12
2017-01-24T01:17:22.797Z,22.94
2017-01-24T01:18:33.618Z,23
2017-01-24T01:19:44.434Z,22.93
2017-01-24T01:20:55.228Z,22.88
2017-01-24T01:22:06.026Z,22.76
2017-01-24T01:23:16.829Z,22.86
2017-01-24T01:24:27.646Z,22.81
2017-01-24T01:25:38.470Z,22.86
2017-01-24T01:26:49.263Z,22.85
2017-01-24T01:28:00.067Z,22.88
2017-01-24T01:29:10.882Z,22.89
2017-01-24T01:30:21.887Z,22.85
2017-01-24T01:31:32.682Z,22.94
2017-01-24T01:32:43.483Z,22.99
2017-01-24T01:33:54.324Z,22.99
2017-01-24T01:35:05.140Z,22.94
2017-01-24T01:36:15.949Z,23.03
2017-01-24T01:37:26.753Z,23
2017-01-24T01:38:37.560Z,23.06
2017-01-24T01:39:48.370Z,22.99
2017-01-24T01:40:59.191Z,22.96
2017-01-24T01:42:09.998Z,23.06
2017-01-24T01:43:20.804Z,23.03
2017-01-24T01:44:31.607Z,22.94
2017-01-24T01:45:42.401Z,22.96
2017-01-24T01:46:53.194Z,23.07
2017-01-24T01:48:04.186Z,23.09
2017-01-24T01:49:14.986Z,22.99
2017-01-24T01:50:25.787Z,22.96
2017-01-24T01:51:36.579Z,22.93
2017-01-24T01:52:47.369Z,22.82
2017-01-24T01:53:58.515Z,22.81
2017-01-24T01:55:09.303Z,22.88
2017-01-24T01:56:20.094Z,22.79
2017-01-24T01:57:30.886Z,22.79
2017-01-24T01:58:41.679Z,22.85
2017-01-24T01:59:52.471Z,22.75
2017-01-24T02:01:03.260Z,22.85
2017-01-24T02:02:14.052Z,22.79
2017-01-24T02:03:24.846Z,22.84
2017-01-24T02:04:35.658Z,22.74
2017-01-24T02:05:46.654Z,22.79
2017-01-24T02:06:57.445Z,22.7
2017-01-24T02:08:08.235Z,22.75
2017-01-24T02:09:19.030Z,22.75
2017-01-24T02:10:29.824Z,22.79
2017-01-24T02:11:40.613Z,22.82
2017-01-24T02:12:51.434Z,22.86
2017-01-24T02:14:02.248Z,22.96
2017-01-24T02:15:13.049Z,22.89
2017-01-24T02:16:23.845Z,23.07
2017-01-24T02:18:59.906Z,23.06
2017-01-24T02:20:10.726Z,23.15
2017-01-24T02:21:22.129Z,23.06
2017-01-24T02:22:47.400Z,23.12
2017-01-24T02:23:58.189Z,23.12
2017-01-24T02:25:08.979Z,23.15
2017-01-24T02:26:19.781Z,23.18
2017-01-24T02:27:30.575Z,23.15
2017-01-24T02:28:41.619Z,23.15
2017-01-24T02:29:52.406Z,23.09
2017-01-24T02:31:03.199Z,23.11
2017-01-24T02:32:13.988Z,23.15
2017-01-24T02:33:24.788Z,23.14
2017-01-24T02:34:35.777Z,23.06
2017-01-24T02:35:46.574Z,23.15
2017-01-24T02:36:57.370Z,23.14
2017-01-24T02:38:08.163Z,23.18
2017-01-24T02:39:33.460Z,23.09
2017-01-24T02:40:44.255Z,23.26
2017-01-24T02:41:55.044Z,23.18
2017-01-24T02:43:05.837Z,23.15
2017-01-24T02:44:16.641Z,23.14
2017-01-24T02:45:27.790Z,23.07
2017-01-24T02:46:38.595Z,23.19
2017-01-24T02:47:49.392Z,23.11
2017-01-24T02:50:25.815Z,23.12
2017-01-24T02:51:36.620Z,23.03
2017-01-24T02:52:47.429Z,23.16
2017-01-24T02:53:58.232Z,23.09
2017-01-24T02:55:09.033Z,23.11
2017-01-24T02:56:20.097Z,23.11
2017-01-24T02:57:30.908Z,23.06
2017-01-24T02:58:41.715Z,22.97
2017-01-24T02:59:52.526Z,22.88
2017-01-24T03:01:03.336Z,22.81
2017-01-24T03:02:14.409Z,22.81
2017-01-24T03:03:25.218Z,22.96
2017-01-24T03:04:36.021Z,22.99
2017-01-24T03:05:46.831Z,22.88
2017-01-24T03:06:57.641Z,23
2017-01-24T03:08:09.317Z,23.03
2017-01-24T03:09:20.127Z,23
2017-01-24T03:10:30.935Z,22.97
2017-01-24T03:11:56.220Z,22.96
2017-01-24T03:13:07.370Z,22.93
2017-01-24T03:14:18.178Z,23.01
2017-01-24T03:15:43.452Z,23.14
2017-01-24T03:16:54.259Z,23.07
2017-01-24T03:18:05.067Z,23.03
2017-01-24T03:19:16.126Z,23.06
2017-01-24T03:20:26.961Z,23.12
2017-01-24T03:21:37.760Z,22.97
2017-01-24T03:22:48.565Z,23.06
2017-01-24T03:23:59.605Z,23.06
2017-01-24T03:26:35.687Z,22.89
2017-01-24T03:27:46.489Z,22.89
2017-01-24T03:28:57.289Z,22.84
2017-01-24T03:30:08.089Z,22.82
2017-01-24T03:31:18.889Z,22.72
2017-01-24T03:32:44.163Z,22.61
2017-01-24T03:33:54.971Z,22.59
2017-01-24T03:35:06.033Z,22.59
2017-01-24T03:36:16.841Z,22.57
2017-01-24T03:37:27.649Z,22.57
2017-01-24T03:38:38.458Z,22.49
2017-01-24T03:39:49.263Z,22.52
2017-01-24T03:41:00.065Z,22.48
2017-01-24T03:42:10.876Z,22.46
2017-01-24T03:43:21.702Z,22.48
2017-01-24T03:44:32.512Z,22.45
2017-01-24T03:45:43.321Z,22.44
2017-01-24T03:46:54.124Z,22.46
2017-01-24T03:48:04.936Z,22.45
2017-01-24T03:49:15.742Z,22.48
2017-01-24T03:50:26.546Z,22.51
2017-01-24T03:51:37.703Z,22.48
2017-01-24T03:52:48.507Z,22.52
2017-01-24T03:53:59.317Z,22.57
2017-01-24T03:55:24.594Z,22.56
2017-01-24T03:56:35.648Z,22.69
2017-01-24T03:57:46.457Z,22.63
2017-01-24T03:58:57.294Z,22.7
2017-01-24T04:00:08.709Z,22.69
2017-01-24T04:01:19.517Z,22.66
2017-01-24T04:02:30.527Z,22.64
2017-01-24T04:03:41.336Z,22.66
2017-01-24T04:04:52.144Z,22.59
2017-01-24T04:06:02.950Z,22.61
2017-01-24T04:07:28.560Z,22.6
2017-01-24T04:08:39.366Z,22.56
2017-01-24T04:09:50.167Z,22.61
2017-01-24T04:11:00.973Z,22.6
2017-01-24T04:12:11.785Z,22.57
2017-01-24T04:13:22.839Z,22.6
2017-01-24T04:14:33.644Z,22.54
2017-01-24T04:15:44.454Z,22.63
2017-01-24T04:16:55.261Z,22.63
2017-01-24T04:18:06.073Z,22.49
2017-01-24T04:19:17.233Z,22.44
2017-01-24T04:20:28.044Z,22.49
2017-01-24T04:21:38.848Z,22.51
2017-01-24T04:22:49.654Z,22.52
2017-01-24T04:24:00.457Z,22.56
2017-01-24T04:25:11.282Z,22.63
2017-01-24T04:26:22.102Z,22.59
2017-01-24T04:27:32.911Z,22.54
2017-01-24T04:28:43.715Z,22.6
2017-01-24T04:29:54.532Z,22.49
2017-01-24T04:31:05.689Z,22.51
2017-01-24T04:32:16.496Z,22.49
2017-01-24T04:33:27.311Z,22.49
2017-01-24T04:34:38.121Z,22.51
2017-01-24T04:35:48.925Z,22.49
2017-01-24T04:37:14.552Z,22.51
2017-01-24T04:38:25.356Z,22.48
2017-01-24T04:39:36.167Z,22.48
2017-01-24T04:40:46.971Z,22.35
2017-01-24T04:41:58.126Z,22.36
2017-01-24T04:43:08.933Z,22.41
2017-01-24T04:44:19.737Z,22.35
2017-01-24T04:45:30.559Z,22.29
2017-01-24T04:46:41.387Z,22.35
2017-01-24T04:47:52.394Z,22.3
2017-01-24T04:49:03.202Z,22.35
2017-01-24T04:50:14.033Z,22.15
2017-01-24T04:51:24.836Z,22.33
2017-01-24T04:52:35.641Z,22.3
2017-01-24T04:53:46.654Z,22.35
2017-01-24T04:54:57.483Z,22.35
2017-01-24T04:56:08.292Z,22.23
2017-01-24T04:57:19.100Z,22.26
2017-01-24T04:58:29.905Z,22.27
2017-01-24T04:59:40.711Z,22.31
2017-01-24T05:00:51.514Z,22.3
2017-01-24T05:02:02.320Z,22.29
2017-01-24T05:03:13.129Z,22.27
2017-01-24T05:04:23.935Z,22.15
2017-01-24T05:05:34.746Z,22.12
2017-01-24T05:07:00.640Z,22.14
2017-01-24T05:08:11.450Z,22.12
2017-01-24T05:09:22.256Z,22.14
2017-01-24T05:10:33.311Z,22.21
2017-01-24T05:11:44.118Z,22.08
2017-01-24T05:12:54.926Z,22.06
2017-01-24T05:14:05.744Z,22.15
2017-01-24T05:15:16.551Z,22.04
2017-01-24T05:16:27.578Z,22.08
2017-01-24T05:17:38.409Z,22.06
2017-01-24T05:18:49.215Z,22.01
2017-01-24T05:20:14.494Z,22.01
2017-01-24T05:21:26.488Z,22.01
2017-01-24T05:22:37.276Z,21.91
2017-01-24T05:23:48.063Z,21.9
2017-01-24T05:24:58.845Z,21.99
2017-01-24T05:26:09.634Z,21.98
2017-01-24T05:27:20.786Z,21.98
2017-01-24T05:28:31.577Z,21.99
2017-01-24T05:29:42.363Z,21.94
2017-01-24T05:30:53.146Z,21.94
2017-01-24T05:32:03.941Z,21.99
2017-01-24T05:33:14.988Z,21.98
2017-01-24T05:34:25.782Z,22.05
2017-01-24T05:35:36.566Z,21.96
2017-01-24T05:36:47.352Z,21.99
2017-01-24T05:37:58.153Z,21.91
2017-01-24T05:39:09.168Z,21.93
2017-01-24T05:40:19.962Z,21.93
2017-01-24T05:41:30.748Z,21.93
2017-01-24T05:42:41.547Z,21.93
2017-01-24T05:43:52.329Z,21.9
2017-01-24T05:45:03.118Z,22.01
2017-01-24T05:46:13.901Z,22.02
2017-01-24T05:48:49.971Z,22.01
2017-01-24T05:50:01.114Z,22.08
2017-01-24T05:51:11.913Z,22.17
2017-01-24T05:52:22.706Z,22.19
2017-01-24T05:53:33.499Z,22.19
2017-01-24T05:54:44.286Z,22.14
2017-01-24T05:55:55.684Z,22.19
2017-01-24T05:57:06.488Z,22.19
2017-01-24T05:58:17.287Z,22.15
2017-01-24T05:59:28.088Z,22.14
2017-01-24T06:00:38.882Z,22.14
2017-01-24T06:01:49.909Z,22.05
2017-01-24T06:03:00.711Z,22.04
2017-01-24T06:04:11.509Z,22.05
2017-01-24T06:05:22.317Z,21.93
2017-01-24T06:06:33.145Z,21.94
2017-01-24T06:07:44.295Z,21.85
2017-01-24T06:08:55.102Z,21.83
2017-01-24T06:10:05.906Z,21.93
2017-01-24T06:11:17.312Z,21.99
2017-01-24T06:12:28.149Z,22.01
2017-01-24T06:13:39.294Z,21.99
2017-01-24T06:14:50.098Z,22.01
2017-01-24T06:16:00.906Z,22.09
2017-01-24T06:17:11.708Z,22.06
2017-01-24T06:18:22.520Z,21.98
2017-01-24T06:19:33.529Z,22.14
2017-01-24T06:20:44.339Z,22.11
2017-01-24T06:21:55.147Z,22.08
2017-01-24T06:23:05.953Z,22.12
2017-01-24T06:24:16.767Z,22.02
2017-01-24T06:25:27.821Z,22.01
2017-01-24T06:26:38.627Z,22.02
2017-01-24T06:28:03.906Z,22.02
2017-01-24T06:29:14.719Z,22.09
2017-01-24T06:30:25.774Z,22.06
2017-01-24T06:31:36.581Z,22.04
2017-01-24T06:32:47.384Z,22.11
2017-01-24T06:33:58.187Z,22.02
2017-01-24T06:35:08.995Z,22.02
2017-01-24T06:36:19.802Z,22.19
2017-01-24T06:37:30.633Z,22.12
2017-01-24T06:38:41.439Z,22.01
2017-01-24T06:39:52.244Z,21.99
2017-01-24T06:41:03.051Z,22.06
2017-01-24T06:42:14.058Z,21.94
2017-01-24T06:43:24.862Z,21.99
2017-01-24T06:44:35.668Z,21.99
2017-01-24T06:45:46.473Z,22.06
2017-01-24T06:46:57.278Z,22.11
2017-01-24T06:48:08.956Z,22.02
2017-01-24T06:49:19.765Z,21.99
2017-01-24T06:50:30.571Z,21.96
2017-01-24T06:51:41.379Z,21.96
2017-01-24T06:52:52.183Z,21.91
2017-01-24T06:54:03.341Z,22.01
2017-01-24T06:55:14.152Z,22.01
2017-01-24T06:56:24.957Z,21.98
2017-01-24T06:57:35.766Z,21.99
2017-01-24T06:58:46.579Z,22.17
2017-01-24T06:59:57.633Z,22.08
2017-01-24T07:01:08.444Z,22.11
2017-01-24T07:02:19.248Z,22.01
2017-01-24T07:03:30.055Z,22.15
2017-01-24T07:04:40.861Z,22.09
2017-01-24T07:05:51.666Z,22.11
2017-01-24T07:07:02.473Z,22.06
2017-01-24T07:08:13.283Z,22.05
2017-01-24T07:09:24.087Z,22.06
2017-01-24T07:10:34.890Z,22.11
2017-01-24T07:11:45.951Z,22.11
2017-01-24T07:13:11.224Z,22.15
2017-01-24T07:14:22.031Z,22.19
2017-01-24T07:15:47.913Z,22.19
2017-01-24T07:16:58.724Z,22.17
2017-01-24T07:18:09.532Z,22.12
2017-01-24T07:19:20.949Z,22.19
2017-01-24T07:20:31.755Z,22.21
2017-01-24T07:21:42.565Z,22.12
2017-01-24T07:22:53.367Z,22.12
2017-01-24T07:24:04.175Z,22.14
2017-01-24T07:25:15.592Z,22.09
2017-01-24T07:26:26.401Z,22.17
2017-01-24T07:27:37.207Z,22.12
2017-01-24T07:29:02.686Z,22.11
2017-01-24T07:30:13.495Z,22.17
2017-01-24T07:31:24.302Z,22.17
2017-01-24T07:32:35.108Z,22.15
2017-01-24T07:33:45.937Z,22.21
2017-01-24T07:34:56.744Z,22.12
2017-01-24T07:36:07.555Z,22.08
2017-01-24T07:37:18.362Z,22.09
2017-01-24T07:38:29.169Z,22.11
2017-01-24T07:39:40.276Z,22.19
2017-01-24T07:40:51.078Z,22.11
2017-01-24T07:42:01.882Z,22.17
2017-01-24T07:43:12.697Z,21.99
2017-01-24T07:44:23.499Z,22.14
2017-01-24T07:45:34.556Z,22.09
2017-01-24T07:46:45.369Z,22.05
2017-01-24T07:47:56.202Z,22.09
2017-01-24T07:49:07.007Z,22.04
2017-01-24T07:50:17.816Z,21.96
2017-01-24T07:51:28.619Z,21.96
2017-01-24T07:52:39.429Z,21.89
2017-01-24T07:53:50.266Z,21.89
2017-01-24T07:55:01.069Z,21.79
2017-01-24T07:56:11.880Z,21.77
2017-01-24T07:57:22.684Z,21.91
2017-01-24T07:58:33.488Z,21.94
2017-01-24T07:59:44.293Z,21.91
2017-01-24T08:00:55.103Z,21.99
2017-01-24T08:02:05.911Z,22.04
2017-01-24T08:03:16.967Z,21.91
2017-01-24T08:04:27.773Z,21.93
2017-01-24T08:05:38.580Z,21.96
2017-01-24T08:06:49.384Z,22.05
2017-01-24T08:08:00.193Z,22.04
2017-01-24T08:09:11.350Z,21.98
2017-01-24T08:10:22.165Z,22.02
2017-01-24T08:11:32.973Z,22.02
2017-01-24T08:12:43.776Z,22.01
2017-01-24T08:13:54.583Z,21.96
2017-01-24T08:15:05.640Z,22.01
2017-01-24T08:16:16.447Z,22.02
2017-01-24T08:17:27.258Z,22.02
2017-01-24T08:18:38.069Z,22.05
2017-01-24T08:19:48.876Z,22.02
2017-01-24T08:21:00.032Z,21.96
2017-01-24T08:22:10.865Z,21.91
2017-01-24T08:23:21.673Z,21.89
2017-01-24T08:24:32.482Z,21.89
2017-01-24T08:25:43.288Z,21.93
2017-01-24T08:26:54.092Z,21.96
2017-01-24T08:28:04.902Z,21.93
2017-01-24T08:29:15.732Z,21.94
2017-01-24T08:30:26.535Z,21.93
2017-01-24T08:31:37.341Z,21.91
2017-01-24T08:32:48.401Z,21.98
2017-01-24T08:33:59.205Z,21.86
2017-01-24T08:35:10.015Z,21.89
2017-01-24T08:36:20.826Z,21.85
2017-01-24T08:37:31.633Z,21.77
2017-01-24T08:38:42.436Z,21.85
2017-01-24T08:39:53.244Z,21.83
2017-01-24T08:41:04.051Z,21.82
2017-01-24T08:42:14.864Z,21.79
2017-01-24T08:43:25.667Z,21.81
2017-01-24T08:44:36.833Z,21.83
2017-01-24T08:45:47.643Z,21.89
2017-01-24T08:46:58.448Z,21.86
2017-01-24T08:48:09.253Z,21.83
2017-01-24T08:49:20.056Z,21.86
2017-01-24T08:50:31.116Z,21.9
2017-01-24T08:53:07.203Z,21.79
2017-01-24T08:54:18.008Z,21.89
2017-01-24T08:55:28.811Z,21.93
2017-01-24T08:56:39.616Z,21.79
2017-01-24T08:57:50.427Z,21.83
2017-01-24T08:59:01.234Z,21.79
2017-01-24T09:00:12.051Z,21.79
2017-01-24T09:01:23.108Z,21.75
2017-01-24T09:02:33.922Z,21.81
2017-01-24T09:03:44.730Z,21.77
2017-01-24T09:04:55.535Z,21.75
2017-01-24T09:06:06.342Z,21.81
2017-01-24T09:07:17.147Z,21.81
2017-01-24T09:08:27.956Z,21.77
2017-01-24T09:09:38.767Z,21.86
2017-01-24T09:10:49.572Z,21.91
2017-01-24T09:12:00.376Z,21.93
2017-01-24T09:13:11.388Z,21.96
2017-01-24T09:14:22.205Z,21.89
2017-01-24T09:15:33.016Z,21.94
2017-01-24T09:16:43.823Z,21.82
2017-01-24T09:17:54.643Z,21.86
2017-01-24T09:19:05.702Z,21.91
2017-01-24T09:20:16.506Z,21.79
2017-01-24T09:21:27.311Z,21.91
2017-01-24T09:22:38.118Z,21.9
2017-01-24T09:23:48.926Z,21.89
2017-01-24T09:24:59.985Z,21.91
2017-01-24T09:26:10.793Z,21.86
2017-01-24T09:27:21.610Z,21.94
2017-01-24T09:28:32.418Z,21.91
2017-01-24T09:29:43.226Z,21.91
2017-01-24T09:30:54.383Z,21.94
2017-01-24T09:32:05.192Z,21.99
2017-01-24T09:33:30.470Z,21.98
2017-01-24T09:34:41.274Z,22.01
2017-01-24T09:35:52.098Z,22.06
2017-01-24T09:37:02.901Z,22.02
2017-01-24T09:38:13.704Z,22.02
2017-01-24T09:39:24.518Z,21.98
2017-01-24T09:40:35.326Z,22.01
2017-01-24T09:41:46.131Z,22.06
2017-01-24T09:43:11.412Z,22.01
2017-01-24T09:44:22.218Z,22.15
2017-01-24T09:45:33.640Z,22.19
2017-01-24T09:46:44.799Z,22.19
2017-01-24T09:47:55.606Z,22.3
2017-01-24T09:49:06.412Z,22.31
2017-01-24T09:50:17.220Z,22.3
2017-01-24T09:51:28.027Z,22.29
2017-01-24T09:52:39.083Z,22.36
2017-01-24T09:53:49.888Z,22.44
2017-01-24T09:55:00.700Z,22.44
2017-01-24T09:56:11.513Z,22.49
2017-01-24T09:57:22.313Z,22.52
2017-01-24T09:58:33.464Z,22.57
2017-01-24T09:59:44.262Z,22.59
2017-01-24T10:00:55.060Z,22.48
2017-01-24T10:02:05.864Z,22.49
2017-01-24T10:03:16.669Z,22.45
2017-01-24T10:04:27.825Z,22.39
2017-01-24T10:05:38.629Z,22.51
2017-01-24T10:06:49.431Z,22.46
2017-01-24T10:08:00.239Z,22.36
2017-01-24T10:09:11.039Z,22.35
2017-01-24T10:10:22.195Z,22.27
2017-01-24T10:11:32.995Z,22.12
2017-01-24T10:12:43.799Z,22.2
2017-01-24T10:13:54.605Z,22.14
2017-01-24T10:15:05.411Z,22.17
2017-01-24T10:16:16.205Z,22.19
2017-01-24T10:17:26.997Z,22.17
2017-01-24T10:18:38.396Z,22.09
2017-01-24T10:19:49.192Z,22.12
2017-01-24T10:20:59.988Z,22.08
2017-01-24T10:22:10.988Z,22.2
2017-01-24T10:23:21.771Z,22.12
2017-01-24T10:24:32.567Z,22.29
2017-01-24T10:25:43.365Z,22.33
2017-01-24T10:26:54.159Z,22.26
2017-01-24T10:28:19.436Z,22.38
2017-01-24T10:29:30.234Z,22.44
2017-01-24T10:30:41.033Z,22.51
2017-01-24T10:31:51.836Z,22.49
2017-01-24T10:33:02.630Z,22.61
2017-01-24T10:34:13.778Z,22.63
2017-01-24T10:35:24.571Z,22.76
2017-01-24T10:36:35.445Z,22.66
2017-01-24T10:38:00.764Z,22.64
2017-01-24T10:39:11.848Z,22.63
2017-01-24T10:40:22.662Z,22.59
2017-01-24T10:41:33.446Z,22.76
2017-01-24T10:42:44.229Z,22.75
2017-01-24T10:43:55.015Z,22.79
2017-01-24T10:45:05.803Z,22.86
2017-01-24T10:46:16.589Z,22.78
2017-01-24T10:47:27.380Z,22.81
2017-01-24T10:48:38.191Z,22.74
2017-01-24T10:49:48.982Z,22.72
2017-01-24T10:51:00.126Z,22.88
2017-01-24T10:52:11.519Z,22.86
2017-01-24T10:53:22.316Z,22.93
2017-01-24T10:54:33.098Z,22.99
2017-01-24T10:55:58.609Z,23.01
2017-01-24T10:57:09.395Z,22.97
2017-01-24T10:58:20.186Z,23
2017-01-24T10:59:30.980Z,23.09
2017-01-24T11:00:41.793Z,23.07
2017-01-24T11:01:52.877Z,23.09
2017-01-24T11:03:03.691Z,23.22
2017-01-24T11:04:14.689Z,23.16
2017-01-24T11:05:25.676Z,23.14
2017-01-24T11:06:36.667Z,23.21
2017-01-24T11:07:47.653Z,23.25
2017-01-24T11:08:58.635Z,23.32
2017-01-24T11:10:09.572Z,23.32
2017-01-24T11:11:34.843Z,23.31
2017-01-24T11:12:45.633Z,23.37
2017-01-24T11:13:56.423Z,23.44
2017-01-24T11:15:07.242Z,23.49
2017-01-24T11:16:18.028Z,23.39
2017-01-24T11:17:28.817Z,23.53
2017-01-24T11:18:39.604Z,23.67
2017-01-24T11:19:50.397Z,23.63
2017-01-24T11:21:01.183Z,23.69
2017-01-24T11:22:11.975Z,23.69
2017-01-24T11:23:22.762Z,23.75
2017-01-24T11:24:33.547Z,23.77
2017-01-24T11:25:44.334Z,23.82
2017-01-24T11:26:55.129Z,23.9
2017-01-24T11:28:05.921Z,23.89
2017-01-24T11:29:16.706Z,23.94
2017-01-24T11:30:27.522Z,24.04
2017-01-24T11:31:38.308Z,23.97
2017-01-24T11:32:49.098Z,24.15
2017-01-24T11:33:59.883Z,24.06
2017-01-24T11:35:11.295Z,24.05
2017-01-24T11:36:22.284Z,24.12
2017-01-24T11:37:33.073Z,24.08
2017-01-24T11:38:58.337Z,24.12
2017-01-24T11:40:09.745Z,24.14
2017-01-24T11:41:20.836Z,24.11
2017-01-24T11:43:56.885Z,24.23
2017-01-24T11:45:07.679Z,24.18
2017-01-24T11:46:18.466Z,24.27
2017-01-24T11:47:29.263Z,24.31
2017-01-24T11:48:40.052Z,24.37
2017-01-24T11:49:50.867Z,24.37
2017-01-24T11:51:01.657Z,24.46
2017-01-24T11:52:12.459Z,24.53
2017-01-24T11:53:23.246Z,24.6
2017-01-24T11:54:34.048Z,24.67
2017-01-24T11:55:59.323Z,24.56
2017-01-24T11:57:10.117Z,24.63
2017-01-24T11:58:20.903Z,24.64
2017-01-24T11:59:46.171Z,24.68
2017-01-24T12:00:56.970Z,24.87
2017-01-24T12:03:47.519Z,25.02
2017-01-24T12:05:12.834Z,24.97
2017-01-24T12:06:23.780Z,25.11
2017-01-24T12:07:34.598Z,25.09
2017-01-24T12:08:45.515Z,25.14
2017-01-24T12:09:56.490Z,24.92
2017-01-24T12:11:07.553Z,25.14
2017-01-24T12:12:19.175Z,25.29
2017-01-24T12:13:30.148Z,25.39
2017-01-24T12:14:41.091Z,25.48
2017-01-24T12:15:51.971Z,25.54
2017-01-24T12:17:02.771Z,25.59
2017-01-24T12:18:13.578Z,25.63
2017-01-24T12:19:24.422Z,25.78
2017-01-24T12:20:36.476Z,25.79
2017-01-24T12:21:47.267Z,25.83
2017-01-24T12:22:58.081Z,26
2017-01-24T12:24:08.898Z,26.01
2017-01-24T12:25:19.686Z,26.17
2017-01-24T12:26:30.481Z,26.28
2017-01-24T12:27:41.887Z,26.38
2017-01-24T12:28:52.712Z,26.36
2017-01-24T12:30:03.535Z,26.24
2017-01-24T12:31:14.629Z,26.42
2017-01-24T12:32:25.428Z,26.51
2017-01-24T12:33:50.695Z,26.65
2017-01-24T12:35:01.485Z,26.78
2017-01-24T12:36:12.273Z,26.81
2017-01-24T12:37:23.065Z,26.97
2017-01-24T12:38:34.490Z,26.84
2017-01-24T12:39:45.280Z,26.91
2017-01-24T12:40:56.066Z,27.01
2017-01-24T12:42:06.855Z,27.08
2017-01-24T12:43:17.648Z,27.27
2017-01-24T12:44:28.468Z,27.45
2017-01-24T12:45:53.733Z,27.63
2017-01-24T12:47:04.724Z,27.98
2017-01-24T12:48:29.989Z,28.25
2017-01-24T12:49:40.792Z,28.21
2017-01-24T12:50:51.583Z,28.33
2017-01-24T12:52:02.379Z,28.3
2017-01-24T12:53:13.421Z,28.36
2017-01-24T12:54:24.223Z,28.18
2017-01-24T12:55:35.030Z,28.11
2017-01-24T12:57:00.305Z,28.17
2017-01-24T12:58:11.320Z,28.35
2017-01-24T12:59:22.110Z,28.46
2017-01-24T13:00:32.922Z,28.55
2017-01-24T13:01:43.727Z,28.54
2017-01-24T13:02:54.526Z,28.57
2017-01-24T13:05:31.423Z,28.74
2017-01-24T13:06:42.237Z,28.5
2017-01-24T13:08:08.041Z,28.57
2017-01-24T13:09:35.160Z,28.48
2017-01-24T13:10:45.988Z,28.48
2017-01-24T13:11:59.202Z,28.33
2017-01-24T13:14:50.446Z,27.84
2017-01-24T13:16:01.241Z,27.78
2017-01-24T13:17:12.046Z,27.83
2017-01-24T13:18:22.839Z,27.66
2017-01-24T13:19:33.636Z,27.48
2017-01-24T13:20:44.442Z,27.48
2017-01-24T13:22:09.706Z,27.48
2017-01-24T13:23:20.503Z,27.46
2017-01-24T13:24:31.299Z,27.58
2017-01-24T13:25:42.083Z,27.48
2017-01-24T13:26:52.878Z,27.52
2017-01-24T13:28:03.680Z,27.49
2017-01-24T13:29:14.486Z,27.31
2017-01-24T13:30:25.281Z,27.38
2017-01-24T13:31:36.081Z,27.31
2017-01-24T13:32:46.882Z,27.34
2017-01-24T13:34:00.044Z,27.31
2017-01-24T13:35:12.329Z,27.15
2017-01-24T13:36:23.121Z,27.11
2017-01-24T13:37:35.197Z,27.05
2017-01-24T13:38:47.456Z,27.46
2017-01-24T13:39:58.822Z,27.55
2017-01-24T13:42:49.970Z,27.58
2017-01-24T13:44:00.767Z,27.78
2017-01-24T13:45:27.223Z,27.59
2017-01-24T13:46:52.655Z,27.62
2017-01-24T13:48:03.458Z,27.62
2017-01-24T13:49:28.743Z,27.8
2017-01-24T13:50:39.531Z,27.9
2017-01-24T13:51:50.924Z,28.08
2017-01-24T13:53:01.721Z,28.3
2017-01-24T13:54:12.651Z,28.52
2017-01-24T13:55:23.440Z,28.73
2017-01-24T13:56:34.230Z,28.79
2017-01-24T13:57:45.027Z,28.97
2017-01-24T13:58:56.635Z,29
2017-01-24T14:00:07.451Z,29
2017-01-24T14:01:18.249Z,28.98
2017-01-24T14:02:29.055Z,29.12
2017-01-24T14:03:39.865Z,29.35
2017-01-24T14:04:50.713Z,29.63
2017-01-24T14:06:01.671Z,29.67
2017-01-24T14:07:12.516Z,29.74
2017-01-24T14:08:23.375Z,29.95
2017-01-24T14:09:34.270Z,30.07
2017-01-24T14:10:45.290Z,30.36
2017-01-24T14:11:56.082Z,30.48
2017-01-24T14:13:06.881Z,30.38
2017-01-24T14:14:32.153Z,30.45
2017-01-24T14:15:43.164Z,30.32
2017-01-24T14:16:53.976Z,30.25
2017-01-24T14:18:05.419Z,30.29
2017-01-24T14:19:16.260Z,30.29
2017-01-24T14:20:27.502Z,30.25
2017-01-24T14:21:38.332Z,29.91
2017-01-24T14:23:04.396Z,29.54
2017-01-24T14:24:15.213Z,29.52
2017-01-24T14:25:26.039Z,29.58
2017-01-24T14:26:37.052Z,29.63
2017-01-24T14:27:49.699Z,29.76
2017-01-24T14:29:00.527Z,29.82
2017-01-24T14:30:11.327Z,29.78
2017-01-24T14:31:22.333Z,29.54
2017-01-24T14:32:33.130Z,29.27
2017-01-24T14:33:43.924Z,29.25
2017-01-24T14:34:54.723Z,29.14
2017-01-24T14:36:05.752Z,29.12
2017-01-24T14:37:16.549Z,29.23
2017-01-24T14:38:27.592Z,29.45
2017-01-24T14:39:38.386Z,29.67
2017-01-24T14:41:03.661Z,29.91
2017-01-24T14:42:14.458Z,30.19
2017-01-24T14:43:25.253Z,30.4
2017-01-24T14:44:36.053Z,30.61
2017-01-24T14:46:01.322Z,30.68
2017-01-24T14:47:12.142Z,30.9
2017-01-24T14:48:22.937Z,31.07
2017-01-24T14:49:33.731Z,31.35
2017-01-24T14:50:44.527Z,31.12
2017-01-24T14:51:55.321Z,30.93
2017-01-24T14:53:06.725Z,30.9
2017-01-24T14:54:17.910Z,31.05
2017-01-24T14:55:28.713Z,31.12
2017-01-24T14:56:39.509Z,31.2
2017-01-24T14:57:50.302Z,31.25
2017-01-24T14:59:01.095Z,31.41
2017-01-24T15:00:12.089Z,31.35
2017-01-24T15:01:22.883Z,31.2
2017-01-24T15:02:33.683Z,31.19
2017-01-24T15:03:44.473Z,31
2017-01-24T15:04:55.266Z,30.78
2017-01-24T15:06:06.413Z,30.7
2017-01-24T15:07:17.209Z,30.63
2017-01-24T15:08:28.042Z,30.64
2017-01-24T15:09:53.323Z,30.51
2017-01-24T15:11:04.134Z,30.6
2017-01-24T15:12:14.951Z,30.51
2017-01-24T15:13:25.763Z,30.45
2017-01-24T15:14:36.618Z,30.68
2017-01-24T15:15:47.429Z,30.91
2017-01-24T15:16:58.244Z,31.09
2017-01-24T15:18:09.066Z,31.16
2017-01-24T15:19:19.912Z,31.07
2017-01-24T15:20:30.752Z,31.07
2017-01-24T15:21:41.588Z,31.15
2017-01-24T15:22:52.415Z,31.01
2017-01-24T15:24:03.251Z,30.86
2017-01-24T15:25:14.083Z,30.72
2017-01-24T15:26:24.906Z,30.6
2017-01-24T15:27:35.737Z,30.44
2017-01-24T15:28:46.586Z,30.28
2017-01-24T15:29:58.015Z,30.3
2017-01-24T15:31:08.862Z,30.38
2017-01-24T15:32:48.635Z,30.57
2017-01-24T15:33:59.655Z,30.4
2017-01-24T15:35:10.486Z,30.44
2017-01-24T15:36:21.326Z,30.29
2017-01-24T15:37:32.177Z,30.3
2017-01-24T15:38:42.981Z,30.37
2017-01-24T15:39:53.783Z,30.34